Flight Track Log - Related Links

Times and Time Zones

All times are in EDT time to prevent confusion due to time zone crossing. See the SWA499 flight status page for this flight to view local times or setup timezone preferences in your user account.

Time Position Orientation Groundspeed Altitude Reporting Facility
EDT Latitude Longitude Course Direction KTS MPH feet Rate Location/Type
Sun 10:52:05 AM 39.1333 -76.6500 237° Southwest 181 208 2,300  Level Potomac TRACON
Sun 10:53:00 AM 39.1333 -76.7167 270° West 230 265 4,300 1,670 Climbing Potomac TRACON
Sun 10:54:00 AM 39.1667 -76.8000 297° West 265 305 5,500 1,632 Climbing Potomac TRACON
Sun 10:54:54 AM 39.2000 -76.8833 297° West 275 316 7,400 2,579 Climbing Potomac TRACON
Sun 10:55:54 AM 39.2167 -76.9833 282° West 290 334 10,400 2,100 Climbing Potomac TRACON
Sun 10:56:54 AM 39.2167 -77.1000 270° West 343 395 11,600 2,211 Climbing Potomac TRACON
Sun 10:57:00 AM 38.8194 -77.3097 237° Southwest  Level Estimated
Sun 10:57:48 AM 39.1333 -77.1667 212° Southwest 348 400 14,600  Level Potomac TRACON
Sun 10:58:48 AM 39.0667 -77.2333 218° Southwest 355 409 17,400 2,500 Climbing Potomac TRACON
Sun 10:59:48 AM 38.9833 -77.3167 218° Southwest 383 441 19,600 1,942 Climbing Potomac TRACON
Sun 11:01:41 AM 38.8114 -77.4592 213° Southwest 418 481 23,000 1,207 Climbing Washington Center
Sun 11:02:42 AM 38.7183 -77.5394 214° Southwest 406 467 23,100 1,140 Climbing Washington Center
Sun 11:03:42 AM 38.6294 -77.6219 216° Southwest 401 461 25,300 2,000 Climbing Washington Center
Sun 11:04:42 AM 38.5342 -77.7044 214° Southwest 407 468 27,100 1,537 Climbing Washington Center
Sun 11:05:43 AM 38.4658 -77.8006 228° Southwest 407 468 28,400 1,513 Climbing Washington Center
Sun 11:06:41 AM 38.3986 -77.9311 237° Southwest 422 486 30,100 1,916 Climbing Washington Center
Sun 11:07:42 AM 38.3336 -78.0586 237° Southwest 434 499 32,200 1,623 Climbing Washington Center
Sun 11:08:43 AM 38.2661 -78.1861 236° Southwest 439 505 33,400 1,339 Climbing Washington Center
Sun 11:09:43 AM 38.1986 -78.3131 236° Southwest 439 505 34,900 1,627 Climbing Washington Center
Sun 11:10:41 AM 38.1311 -78.4428 237° Southwest 439 505 36,600 1,678 Climbing Washington Center
Sun 11:11:41 AM 38.0839 -78.5861 247° West 413 475 38,200 1,289 Climbing Washington Center
Sun 11:12:42 AM 38.0386 -78.7239 247° West 413 475 39,200 893 Climbing Washington Center
Sun 11:13:42 AM 37.9911 -78.8564 246° West 418 481 40,000 397 Climbing Washington Center
Sun 11:14:43 AM 37.9503 -78.9783 247° West 418 481 40,000  Level Washington Center
Sun 11:15:41 AM 37.9025 -79.1131 246° West 418 481 40,000  Level Washington Center
Sun 11:16:42 AM 37.8403 -79.2417 239° Southwest 418 481 40,000  Level Washington Center
Sun 11:17:43 AM 37.7736 -79.3778 238° Southwest 423 487 40,000  Level Washington Center
Sun 11:18:41 AM 37.7153 -79.5061 240° Southwest 423 487 40,000  Level Washington Center
Sun 11:19:42 AM 37.6553 -79.6158 235° Southwest 423 487 40,000  Level Washington Center
Sun 11:20:42 AM 37.5881 -79.7511 238° Southwest 423 487 40,000  Level Washington Center
Sun 11:21:43 AM 37.5317 -79.8711 239° Southwest 428 493 40,000  Level Washington Center
Sun 11:22:43 AM 37.4642 -80.0033 237° Southwest 433 498 40,000  Level Washington Center
Sun 11:23:41 AM 37.4011 -80.1278 237° Southwest 428 493 40,000  Level Washington Center
Sun 11:24:41 AM 37.3403 -80.2497 238° Southwest 423 487 40,000  Level Washington Center
Sun 11:25:17 AM 37.3011 -80.3236 236° Southwest 426 490 40,000  Level Atlanta Center
Sun 11:26:17 AM 37.2458 -80.4306 237° Southwest 426 490 40,000  Level Atlanta Center
Sun 11:27:17 AM 37.1828 -80.5558 238° Southwest 426 490 40,000  Level Atlanta Center
Sun 11:28:17 AM 37.1217 -80.6758 237° Southwest 426 490 40,000  Level Atlanta Center
Sun 11:29:17 AM 37.0603 -80.8006 238° Southwest 421 484 40,000  Level Atlanta Center
Sun 11:30:17 AM 36.9928 -80.9281 236° Southwest 416 479 40,000  Level Atlanta Center
Sun 11:31:17 AM 36.9331 -81.0472 238° Southwest 416 479 40,000  Level Atlanta Center
Sun 11:32:17 AM 36.8714 -81.1664 237° Southwest 416 479 40,000  Level Atlanta Center
Sun 11:33:17 AM 36.8156 -81.2747 237° Southwest 416 479 40,000  Level Atlanta Center
Sun 11:34:17 AM 36.7556 -81.4011 239° Southwest 414 476 40,000  Level Atlanta Center
Sun 11:35:17 AM 36.6936 -81.5222 237° Southwest 414 476 40,000  Level Atlanta Center
Sun 11:36:17 AM 36.6272 -81.6433 236° Southwest 419 482 40,000  Level Atlanta Center
Sun 11:37:17 AM 36.5647 -81.7617 237° Southwest 424 488 40,000  Level Atlanta Center
Sun 11:38:17 AM 36.5044 -81.8847 239° Southwest 419 482 40,000  Level Atlanta Center
Sun 11:39:17 AM 36.4397 -82.0000 235° Southwest 419 482 40,000  Level Atlanta Center
Sun 11:40:17 AM 36.3831 -82.1072 237° Southwest 419 482 40,000  Level Atlanta Center
Sun 11:41:17 AM 36.3203 -82.2247 236° Southwest 419 482 40,000  Level Atlanta Center
Sun 11:42:17 AM 36.2572 -82.3444 237° Southwest 419 482 40,000  Level Atlanta Center
Sun 11:43:17 AM 36.1942 -82.4589 236° Southwest 419 482 40,000  Level Atlanta Center
Sun 11:44:17 AM 36.1331 -82.5758 237° Southwest 419 482 40,000  Level Atlanta Center
Sun 11:45:17 AM 36.0717 -82.6900 236° Southwest 419 482 40,000  Level Atlanta Center
Sun 11:46:17 AM 36.0083 -82.8067 236° Southwest 419 482 40,000  Level Atlanta Center
Sun 11:47:17 AM 35.9447 -82.9231 236° Southwest 419 482 40,000  Level Atlanta Center
Sun 11:48:17 AM 35.8831 -83.0392 237° Southwest 419 482 40,000  Level Atlanta Center
Sun 11:49:17 AM 35.8194 -83.1553 236° Southwest 419 482 40,000  Level Atlanta Center
Sun 11:50:17 AM 35.7536 -83.2814 237° Southwest 419 482 40,000  Level Atlanta Center
Sun 11:51:17 AM 35.6917 -83.3969 237° Southwest 414 476 40,000  Level Atlanta Center
Sun 11:52:17 AM 35.6294 -83.5100 236° Southwest 414 476 40,000  Level Atlanta Center
Sun 11:53:17 AM 35.5778 -83.5969 234° Southwest 414 476 40,000  Level Atlanta Center
Sun 11:54:17 AM 35.5114 -83.7225 237° Southwest 414 476 40,000  Level Atlanta Center
Sun 11:55:17 AM 35.4489 -83.8322 235° Southwest 409 471 40,000  Level Atlanta Center
Sun 11:56:17 AM 35.3864 -83.9469 236° Southwest 409 471 40,000  Level Atlanta Center
Sun 11:57:17 AM 35.3239 -84.0567 235° Southwest 403 464 40,000  Level Atlanta Center
Sun 11:58:17 AM 35.2614 -84.1686 236° Southwest 403 464 40,000  Level Atlanta Center
Sun 11:59:17 AM 35.1964 -84.2828 235° Southwest 403 464 40,000  Level Atlanta Center
Sun 12:00:17 PM 35.1336 -84.3944 236° Southwest 403 464 40,000  Level Atlanta Center
Sun 12:01:17 PM 35.0706 -84.5083 236° Southwest 403 464 40,000  Level Atlanta Center
Sun 12:02:17 PM 35.0075 -84.6194 235° Southwest 403 464 40,000  Level Atlanta Center
Sun 12:03:17 PM 34.9444 -84.7256 234° Southwest 403 464 40,000  Level Atlanta Center
Sun 12:04:17 PM 34.8833 -84.8364 236° Southwest 403 464 40,000  Level Atlanta Center
Sun 12:05:17 PM 34.8219 -84.9447 235° Southwest 403 464 40,000  Level Atlanta Center
Sun 12:06:17 PM 34.7586 -85.0525 234° Southwest 403 464 40,000  Level Atlanta Center
Sun 12:07:17 PM 34.6992 -85.1606 236° Southwest 398 458 40,000  Level Atlanta Center
Sun 12:08:17 PM 34.6356 -85.2658 234° Southwest 398 458 40,000  Level Atlanta Center
Sun 12:09:17 PM 34.5719 -85.3708 234° Southwest 398 458 40,000  Level Atlanta Center
Sun 12:10:17 PM 34.5058 -85.4756 233° Southwest 398 458 40,000  Level Atlanta Center
Sun 12:11:17 PM 34.4419 -85.5803 234° Southwest 398 458 40,000  Level Atlanta Center
Sun 12:12:17 PM 34.3758 -85.6972 236° Southwest 398 458 40,000  Level Atlanta Center
Sun 12:13:17 PM 34.3075 -85.8067 233° Southwest 398 458 40,000  Level Atlanta Center
Sun 12:14:17 PM 34.2392 -85.9058 230° Southwest 398 458 40,000  Level Atlanta Center
Sun 12:15:17 PM 34.1731 -86.0122 233° Southwest 398 458 40,000  Level Atlanta Center
Sun 12:16:17 PM 34.1086 -86.1161 233° Southwest 398 458 40,000  Level Atlanta Center
Sun 12:17:17 PM 34.0442 -86.2225 234° Southwest 398 458 40,000  Level Atlanta Center
Sun 12:18:17 PM 33.9775 -86.3258 232° Southwest 398 458 40,000  Level Atlanta Center
Sun 12:19:17 PM 33.9108 -86.4342 233° Southwest 398 458 40,000  Level Atlanta Center
Sun 12:20:17 PM 33.8442 -86.5375 232° Southwest 403 464 40,000  Level Atlanta Center
Sun 12:21:17 PM 33.7772 -86.6431 233° Southwest 403 464 40,000  Level Atlanta Center
Sun 12:22:17 PM 33.7122 -86.7483 233° Southwest 403 464 40,000  Level Atlanta Center
Sun 12:23:17 PM 33.6475 -86.8511 233° Southwest 403 464 40,000  Level Atlanta Center
Sun 12:24:17 PM 33.5822 -86.9561 233° Southwest 403 464 40,000  Level Atlanta Center
Sun 12:25:17 PM 33.5172 -87.0561 232° Southwest 403 464 40,000  Level Atlanta Center
Sun 12:26:17 PM 33.4500 -87.1583 232° Southwest 403 464 40,000  Level Atlanta Center
Sun 12:27:17 PM 33.3847 -87.2631 233° Southwest 403 464 40,000  Level Atlanta Center
Sun 12:28:17 PM 33.3214 -87.3650 233° Southwest 403 464 40,000  Level Atlanta Center
Sun 12:29:54 PM 33.2139 -87.5342 233° Southwest 402 463 40,000  Level Memphis Center
Sun 12:30:54 PM 33.1472 -87.6356 232° Southwest 402 463 40,000  Level Memphis Center
Sun 12:31:54 PM 33.0786 -87.7392 232° Southwest 397 457 40,000  Level Memphis Center
Sun 12:32:54 PM 33.0053 -87.8381 229° Southwest 397 457 40,000  Level Memphis Center
Sun 12:33:54 PM 32.9422 -87.9214 228° Southwest 392 451 40,000  Level Memphis Center
Sun 12:34:54 PM 32.8669 -88.0150 226° Southwest 392 451 40,000  Level Memphis Center
Sun 12:35:54 PM 32.7956 -88.1108 228° Southwest 392 451 40,000  Level Memphis Center
Sun 12:36:54 PM 32.7242 -88.2014 227° Southwest 392 451 40,000  Level Memphis Center
Sun 12:37:54 PM 32.6506 -88.2922 226° Southwest 387 445 40,000  Level Memphis Center
Sun 12:38:54 PM 32.5769 -88.3825 226° Southwest 387 445 40,000 -300 Level Memphis Center
Sun 12:39:54 PM 32.5011 -88.4778 227° Southwest 387 445 39,400 -800 Descending Memphis Center
Sun 12:40:54 PM 32.4253 -88.5706 226° Southwest 392 451 38,400 -1,250 Descending Memphis Center
Sun 12:41:54 PM 32.3514 -88.6606 226° Southwest 392 451 36,900 -1,400 Descending Memphis Center
Sun 12:42:54 PM 32.2733 -88.7578 226° Southwest 392 451 35,600 -950 Descending Memphis Center
Sun 12:43:54 PM 32.1931 -88.8525 225° Southwest 399 459 35,000 -300 Descending Memphis Center
Sun 12:44:54 PM 32.1150 -88.9494 226° Southwest 405 466 35,000  Level Memphis Center
Sun 12:45:54 PM 32.0367 -89.0439 226° Southwest 405 466 35,000  Level Memphis Center
Sun 12:46:54 PM 31.9603 -89.1406 227° Southwest 405 466 35,000 -386 Level Memphis Center
Sun 12:48:14 PM 31.8556 -89.2639 225° Southwest 398 458 34,100 -1,563 Descending Houston Center
Sun 12:49:16 PM 31.7786 -89.3578 226° Southwest 401 461 31,300 -1,984 Descending Houston Center
Sun 12:50:18 PM 31.7000 -89.4481 224° Southwest 398 458 30,000 -629 Descending Houston Center
Sun 12:51:20 PM 31.5833 -89.5275 210° Southwest 406 467 30,000  Level Houston Center
Sun 12:52:21 PM 31.4875 -89.5903 209° Southwest 404 465 30,000  Level Houston Center
Sun 12:53:23 PM 31.3889 -89.6531 209° Southwest 404 465 30,000 -726 Level Houston Center
Sun 12:54:25 PM 31.2900 -89.7181 209° Southwest 409 471 28,500 -1,839 Descending Houston Center
Sun 12:55:27 PM 31.1939 -89.7806 209° Southwest 398 458 26,200 -2,244 Descending Houston Center
Sun 12:56:28 PM 31.1008 -89.8411 209° Southwest 386 444 23,900 -2,390 Descending Houston Center
Sun 12:57:30 PM 30.9931 -89.9097 209° Southwest 371 427 21,300 -2,323 Descending Houston Center
Sun 12:58:32 PM 30.9058 -89.9675 210° Southwest 365 420 19,100 -2,081 Descending Houston Center
Sun 12:59:34 PM 30.8214 -90.0214 209° Southwest 351 404 17,000 -2,096 Descending Houston Center
Sun 12:59:55 PM 30.7867 -90.0444 210° Southwest 349 402 16,200 -2,000 Descending Houston Center
Sun 01:00:19 PM 30.7539 -90.0653 209° Southwest 346 398 15,500 -1,800 Descending Houston Center
Sun 01:00:35 PM 30.7372 -90.0753 207° Southwest 345 397 15,000 -2,066 Descending Houston Center
Sun 01:01:20 PM 30.6650 -90.1028 198° South 338 389 13,400 -1,935 Descending Houston Center
Sun 01:01:37 PM 30.6478 -90.1014 176° South 339 390 13,000 -1,180 Descending Houston Center
Sun 01:02:21 PM 30.5650 -90.1069 183° South 340 391 12,200 -1,065 Descending Houston Center
Sun 01:02:39 PM 30.5539 -90.1081 185° South 339 390 11,900 -1,000 Descending Houston Center
Sun 01:03:21 PM 30.4692 -90.1158 185° South 344 396 11,200 -1,065 Descending Houston Center
Sun 01:03:41 PM 30.4408 -90.1161 180° South 341 392 10,800 -885 Descending Houston Center
Sun 01:04:22 PM 30.3794 -90.1194 183° South 321 369 10,300 -885 Descending Houston Center
Sun 01:04:42 PM 30.3550 -90.1219 185° South 322 371 9,900 -1,279 Descending Houston Center
Sun 01:05:23 PM 30.2981 -90.1253 183° South 288 331 9,000 -1,548 Descending Houston Center
Sun 01:05:44 PM 30.2742 -90.1269 183° South 300 345 8,300 -1,600 Descending Houston Center
Sun 01:06:23 PM 30.2147 -90.1311 183° South 292 336 7,400 -1,355 Descending Houston Center
Sun 01:06:46 PM 30.1936 -90.1336 186° South 294 338 6,900 -1,475 Descending Houston Center
Sun 01:07:24 PM 30.1356 -90.1442 189° South 296 341 5,900 -1,475 Descending Houston Center
Sun 01:07:47 PM 30.1142 -90.1461 184° South 292 336 5,400 -1,279 Descending Houston Center
Sun 01:08:25 PM 30.0567 -90.1569 189° South 282 325 4,600 -1,258 Descending Houston Center
Sun 01:08:49 PM 30.0375 -90.1594 186° South 286 329 4,100 -1,400 Descending Houston Center
Sun 01:09:25 PM 29.9797 -90.1697 189° South 273 314 3,200 -1,452 Descending Houston Center
Sun 01:09:51 PM 29.9458 -90.1744 187° South 281 323 2,600 -627 Descending Houston Center
Sun 01:10:32 PM 29.9028 -90.1850 192° South 215 247 2,500 -677 Descending Houston Center
Sun 01:10:53 PM 29.8939 -90.1997 235° Southwest 237 273 1,900 -984 Descending Houston Center
Sun 01:11:33 PM 29.9003 -90.2331 282° West 144 166 1,500 -787 Descending Houston Center
Sun 01:11:54 PM 29.9064 -90.2456 299° West 187 215 1,100 -492 Descending Houston Center
Sun 01:12:34 PM 29.9242 -90.2631 320° Northwest 125 144 1,000 -290 Descending Houston Center
Sun 01:12:56 PM 29.9361 -90.2681 340° North 153 176 800 -444 Descending Houston Center
Sun 01:13:28 PM 29.9594 -90.2594 18° North 151 174 600 -387 Descending Houston Center
Sun 01:13:58 PM 29.9775 -90.2558 10° North 145 167 400 -400 Descending Houston Center

Login

Don't have an account? Register now (free) for customized features, flight alerts, and more!